sensor_id;sensor_type;location;lat;lon;timestamp;temperature;humidity
39601;DHT22;25297;44.758;11.310;2024-01-27T00:02:20;6.50;99.90
39601;DHT22;25297;44.758;11.310;2024-01-27T00:04:46;6.50;99.90
39601;DHT22;25297;44.758;11.310;2024-01-27T00:07:11;6.40;99.90
39601;DHT22;25297;44.758;11.310;2024-01-27T00:09:37;6.40;99.90
39601;DHT22;25297;44.758;11.310;2024-01-27T00:12:03;6.50;99.90
39601;DHT22;25297;44.758;11.310;2024-01-27T00:14:29;6.60;99.90
39601;DHT22;25297;44.758;11.310;2024-01-27T00:16:54;6.60;99.90
39601;DHT22;25297;44.758;11.310;2024-01-27T00:19:20;6.60;99.90
39601;DHT22;25297;44.758;11.310;2024-01-27T00:21:45;6.60;99.90
39601;DHT22;25297;44.758;11.310;2024-01-27T00:24:13;6.50;99.90
39601;DHT22;25297;44.758;11.310;2024-01-27T00:26:38;6.40;99.90
39601;DHT22;25297;44.758;11.310;2024-01-27T00:29:04;6.40;99.90
39601;DHT22;25297;44.758;11.310;2024-01-27T00:31:29;6.40;99.90
39601;DHT22;25297;44.758;11.310;2024-01-27T00:33:55;6.40;99.90
39601;DHT22;25297;44.758;11.310;2024-01-27T00:36:21;6.30;99.90
39601;DHT22;25297;44.758;11.310;2024-01-27T00:38:46;6.30;99.90
39601;DHT22;25297;44.758;11.310;2024-01-27T00:41:18;6.30;99.90
39601;DHT22;25297;44.758;11.310;2024-01-27T00:43:44;6.30;99.90
39601;DHT22;25297;44.758;11.310;2024-01-27T00:46:10;6.30;99.90
39601;DHT22;25297;44.758;11.310;2024-01-27T00:48:36;6.30;99.90
39601;DHT22;25297;44.758;11.310;2024-01-27T00:51:01;6.40;99.90
39601;DHT22;25297;44.758;11.310;2024-01-27T00:53:27;6.40;99.90
39601;DHT22;25297;44.758;11.310;2024-01-27T00:55:53;6.40;99.90
39601;DHT22;25297;44.758;11.310;2024-01-27T00:58:18;6.40;99.90
39601;DHT22;25297;44.758;11.310;2024-01-27T01:00:44;6.40;99.90
39601;DHT22;25297;44.758;11.310;2024-01-27T01:03:09;6.40;99.90
39601;DHT22;25297;44.758;11.310;2024-01-27T01:05:35;6.40;99.90
39601;DHT22;25297;44.758;11.310;2024-01-27T01:08:00;6.50;99.90
39601;DHT22;25297;44.758;11.310;2024-01-27T01:10:26;6.50;99.90
39601;DHT22;25297;44.758;11.310;2024-01-27T01:12:52;6.50;99.90
39601;DHT22;25297;44.758;11.310;2024-01-27T01:15:17;6.50;99.90
39601;DHT22;25297;44.758;11.310;2024-01-27T01:17:43;6.50;99.90
39601;DHT22;25297;44.758;11.310;2024-01-27T01:20:09;6.60;99.90
39601;DHT22;25297;44.758;11.310;2024-01-27T01:22:35;6.60;99.90
39601;DHT22;25297;44.758;11.310;2024-01-27T01:25:00;6.60;99.90
39601;DHT22;25297;44.758;11.310;2024-01-27T01:27:26;6.60;99.90
39601;DHT22;25297;44.758;11.310;2024-01-27T01:29:51;6.70;99.90
39601;DHT22;25297;44.758;11.310;2024-01-27T01:32:17;6.70;99.90
39601;DHT22;25297;44.758;11.310;2024-01-27T01:34:43;6.70;99.90
39601;DHT22;25297;44.758;11.310;2024-01-27T01:37:08;6.80;99.90
39601;DHT22;25297;44.758;11.310;2024-01-27T01:39:34;6.80;99.90
39601;DHT22;25297;44.758;11.310;2024-01-27T01:41:59;6.80;99.90
39601;DHT22;25297;44.758;11.310;2024-01-27T01:44:29;6.80;99.90
39601;DHT22;25297;44.758;11.310;2024-01-27T01:46:56;6.80;99.90
39601;DHT22;25297;44.758;11.310;2024-01-27T01:49:22;6.90;99.90
39601;DHT22;25297;44.758;11.310;2024-01-27T01:51:48;6.90;99.90
39601;DHT22;25297;44.758;11.310;2024-01-27T01:54:13;6.90;99.90
39601;DHT22;25297;44.758;11.310;2024-01-27T01:56:39;6.90;99.90
39601;DHT22;25297;44.758;11.310;2024-01-27T01:59:05;6.90;99.90
39601;DHT22;25297;44.758;11.310;2024-01-27T02:01:31;6.90;99.90
39601;DHT22;25297;44.758;11.310;2024-01-27T02:03:57;6.90;99.90
39601;DHT22;25297;44.758;11.310;2024-01-27T02:06:23;6.90;99.90
39601;DHT22;25297;44.758;11.310;2024-01-27T02:08:50;6.90;99.90
39601;DHT22;25297;44.758;11.310;2024-01-27T02:11:16;6.90;99.90
39601;DHT22;25297;44.758;11.310;2024-01-27T02:13:42;6.80;99.90
39601;DHT22;25297;44.758;11.310;2024-01-27T02:16:08;6.80;99.90
39601;DHT22;25297;44.758;11.310;2024-01-27T02:18:33;6.80;99.90
39601;DHT22;25297;44.758;11.310;2024-01-27T02:20:59;6.80;99.90
39601;DHT22;25297;44.758;11.310;2024-01-27T02:23:24;6.80;99.90
39601;DHT22;25297;44.758;11.310;2024-01-27T02:25:50;6.80;99.90
39601;DHT22;25297;44.758;11.310;2024-01-27T02:28:16;6.80;99.90
39601;DHT22;25297;44.758;11.310;2024-01-27T02:30:42;6.80;99.90
39601;DHT22;25297;44.758;11.310;2024-01-27T02:33:08;6.70;99.90
39601;DHT22;25297;44.758;11.310;2024-01-27T02:35:33;6.70;99.90
39601;DHT22;25297;44.758;11.310;2024-01-27T02:37:59;6.70;99.90
39601;DHT22;25297;44.758;11.310;2024-01-27T02:40:25;6.70;99.90
39601;DHT22;25297;44.758;11.310;2024-01-27T02:42:50;6.70;99.90
39601;DHT22;25297;44.758;11.310;2024-01-27T02:45:16;6.70;99.90
39601;DHT22;25297;44.758;11.310;2024-01-27T02:47:42;6.70;99.90
39601;DHT22;25297;44.758;11.310;2024-01-27T02:50:08;6.70;99.90
39601;DHT22;25297;44.758;11.310;2024-01-27T02:52:34;6.40;99.90
39601;DHT22;25297;44.758;11.310;2024-01-27T02:55:00;6.70;99.90
39601;DHT22;25297;44.758;11.310;2024-01-27T02:57:26;7.00;99.90
39601;DHT22;25297;44.758;11.310;2024-01-27T02:59:51;6.70;99.90
39601;DHT22;25297;44.758;11.310;2024-01-27T03:02:17;6.70;99.90
39601;DHT22;25297;44.758;11.310;2024-01-27T03:04:43;6.80;99.90
39601;DHT22;25297;44.758;11.310;2024-01-27T03:07:08;6.80;99.90
39601;DHT22;25297;44.758;11.310;2024-01-27T03:09:34;6.70;99.90
39601;DHT22;25297;44.758;11.310;2024-01-27T03:11:59;6.80;99.90
39601;DHT22;25297;44.758;11.310;2024-01-27T03:14:25;6.80;99.90
39601;DHT22;25297;44.758;11.310;2024-01-27T03:16:52;6.70;99.90
39601;DHT22;25297;44.758;11.310;2024-01-27T03:19:17;6.70;99.90
39601;DHT22;25297;44.758;11.310;2024-01-27T03:21:44;6.70;99.90
39601;DHT22;25297;44.758;11.310;2024-01-27T03:24:09;6.70;99.90
39601;DHT22;25297;44.758;11.310;2024-01-27T03:26:35;6.70;99.90
39601;DHT22;25297;44.758;11.310;2024-01-27T03:29:01;6.70;99.90
39601;DHT22;25297;44.758;11.310;2024-01-27T03:31:30;6.70;99.90
39601;DHT22;25297;44.758;11.310;2024-01-27T03:33:58;6.60;99.90
39601;DHT22;25297;44.758;11.310;2024-01-27T03:36:24;6.60;99.90
39601;DHT22;25297;44.758;11.310;2024-01-27T03:38:49;6.50;99.90
39601;DHT22;25297;44.758;11.310;2024-01-27T03:41:15;6.50;99.90
39601;DHT22;25297;44.758;11.310;2024-01-27T03:43:40;6.50;99.90
39601;DHT22;25297;44.758;11.310;2024-01-27T03:46:06;6.40;99.90
39601;DHT22;25297;44.758;11.310;2024-01-27T03:48:32;6.40;99.90
39601;DHT22;25297;44.758;11.310;2024-01-27T03:50:57;6.40;99.90
39601;DHT22;25297;44.758;11.310;2024-01-27T03:53:23;6.30;99.90
39601;DHT22;25297;44.758;11.310;2024-01-27T03:55:48;6.20;99.90
39601;DHT22;25297;44.758;11.310;2024-01-27T03:58:14;6.20;99.90
39601;DHT22;25297;44.758;11.310;2024-01-27T04:00:39;6.20;99.90
39601;DHT22;25297;44.758;11.310;2024-01-27T04:03:05;6.20;99.90
39601;DHT22;25297;44.758;11.310;2024-01-27T04:05:31;6.10;99.90
39601;DHT22;25297;44.758;11.310;2024-01-27T04:07:56;6.10;99.90
39601;DHT22;25297;44.758;11.310;2024-01-27T04:10:22;6.00;99.90
39601;DHT22;25297;44.758;11.310;2024-01-27T04:12:49;6.00;99.90
39601;DHT22;25297;44.758;11.310;2024-01-27T04:15:14;6.00;99.90
39601;DHT22;25297;44.758;11.310;2024-01-27T04:17:41;6.00;99.90
39601;DHT22;25297;44.758;11.310;2024-01-27T04:20:08;6.00;99.90
39601;DHT22;25297;44.758;11.310;2024-01-27T04:22:34;6.00;99.90
39601;DHT22;25297;44.758;11.310;2024-01-27T04:25:00;6.00;99.90
39601;DHT22;25297;44.758;11.310;2024-01-27T04:27:29;6.00;99.90
39601;DHT22;25297;44.758;11.310;2024-01-27T04:29:55;6.10;99.90
39601;DHT22;25297;44.758;11.310;2024-01-27T04:32:22;6.10;99.90
39601;DHT22;25297;44.758;11.310;2024-01-27T04:34:49;6.10;99.90
39601;DHT22;25297;44.758;11.310;2024-01-27T04:37:14;6.10;99.90
39601;DHT22;25297;44.758;11.310;2024-01-27T04:39:40;6.20;99.90
39601;DHT22;25297;44.758;11.310;2024-01-27T04:42:06;6.20;99.90
39601;DHT22;25297;44.758;11.310;2024-01-27T04:44:32;6.10;99.90
39601;DHT22;25297;44.758;11.310;2024-01-27T04:46:58;6.10;99.90
39601;DHT22;25297;44.758;11.310;2024-01-27T04:49:23;6.10;99.90
39601;DHT22;25297;44.758;11.310;2024-01-27T04:51:49;6.10;99.90
39601;DHT22;25297;44.758;11.310;2024-01-27T04:54:15;6.00;99.90
39601;DHT22;25297;44.758;11.310;2024-01-27T04:56:41;6.00;99.90
39601;DHT22;25297;44.758;11.310;2024-01-27T04:59:06;6.00;99.90
39601;DHT22;25297;44.758;11.310;2024-01-27T05:01:32;6.00;99.90
39601;DHT22;25297;44.758;11.310;2024-01-27T05:03:58;6.00;99.90
39601;DHT22;25297;44.758;11.310;2024-01-27T05:06:24;6.10;99.90
39601;DHT22;25297;44.758;11.310;2024-01-27T05:08:50;6.10;99.90
39601;DHT22;25297;44.758;11.310;2024-01-27T05:11:24;6.10;99.90
39601;DHT22;25297;44.758;11.310;2024-01-27T05:13:50;6.10;99.90
39601;DHT22;25297;44.758;11.310;2024-01-27T05:16:16;6.10;99.90
39601;DHT22;25297;44.758;11.310;2024-01-27T05:18:41;6.10;99.90
39601;DHT22;25297;44.758;11.310;2024-01-27T05:21:07;6.10;99.90
39601;DHT22;25297;44.758;11.310;2024-01-27T05:23:33;6.10;99.90
39601;DHT22;25297;44.758;11.310;2024-01-27T05:25:58;6.10;99.90
39601;DHT22;25297;44.758;11.310;2024-01-27T05:28:24;6.10;99.90
39601;DHT22;25297;44.758;11.310;2024-01-27T05:30:49;6.10;99.90
39601;DHT22;25297;44.758;11.310;2024-01-27T05:33:15;6.10;99.90
39601;DHT22;25297;44.758;11.310;2024-01-27T05:35:41;6.10;99.90
39601;DHT22;25297;44.758;11.310;2024-01-27T05:38:07;6.00;99.90
39601;DHT22;25297;44.758;11.310;2024-01-27T05:40:32;6.00;99.90
39601;DHT22;25297;44.758;11.310;2024-01-27T05:42:58;6.00;99.90
39601;DHT22;25297;44.758;11.310;2024-01-27T05:45:24;5.90;99.90
39601;DHT22;25297;44.758;11.310;2024-01-27T05:47:49;6.00;99.90
39601;DHT22;25297;44.758;11.310;2024-01-27T05:50:15;6.00;99.90
39601;DHT22;25297;44.758;11.310;2024-01-27T05:52:41;6.10;99.90
39601;DHT22;25297;44.758;11.310;2024-01-27T05:55:07;6.10;99.90
39601;DHT22;25297;44.758;11.310;2024-01-27T05:57:33;6.10;99.90
39601;DHT22;25297;44.758;11.310;2024-01-27T05:59:59;6.10;99.90
39601;DHT22;25297;44.758;11.310;2024-01-27T06:02:25;6.10;99.90
39601;DHT22;25297;44.758;11.310;2024-01-27T06:04:50;6.10;99.90
39601;DHT22;25297;44.758;11.310;2024-01-27T06:07:16;6.10;99.90
39601;DHT22;25297;44.758;11.310;2024-01-27T06:09:42;6.10;99.90
39601;DHT22;25297;44.758;11.310;2024-01-27T06:12:07;6.00;99.90
39601;DHT22;25297;44.758;11.310;2024-01-27T06:14:33;6.00;99.90
39601;DHT22;25297;44.758;11.310;2024-01-27T06:16:59;6.00;99.90
39601;DHT22;25297;44.758;11.310;2024-01-27T06:19:25;6.00;99.90
39601;DHT22;25297;44.758;11.310;2024-01-27T06:21:51;6.00;99.90
39601;DHT22;25297;44.758;11.310;2024-01-27T06:24:16;6.00;99.90
39601;DHT22;25297;44.758;11.310;2024-01-27T06:26:42;6.50;99.90
39601;DHT22;25297;44.758;11.310;2024-01-27T06:29:07;5.90;99.90
39601;DHT22;25297;44.758;11.310;2024-01-27T06:31:33;6.00;99.90
39601;DHT22;25297;44.758;11.310;2024-01-27T06:33:59;5.90;99.90
39601;DHT22;25297;44.758;11.310;2024-01-27T06:36:24;5.90;99.90
39601;DHT22;25297;44.758;11.310;2024-01-27T06:38:52;5.90;99.90
39601;DHT22;25297;44.758;11.310;2024-01-27T06:41:18;5.90;99.90
39601;DHT22;25297;44.758;11.310;2024-01-27T06:43:43;5.90;99.90
39601;DHT22;25297;44.758;11.310;2024-01-27T06:46:09;5.90;99.90
39601;DHT22;25297;44.758;11.310;2024-01-27T06:48:35;5.90;99.90
39601;DHT22;25297;44.758;11.310;2024-01-27T06:51:01;5.90;99.90
39601;DHT22;25297;44.758;11.310;2024-01-27T06:53:27;5.90;99.90
39601;DHT22;25297;44.758;11.310;2024-01-27T06:55:52;5.90;99.90
39601;DHT22;25297;44.758;11.310;2024-01-27T06:58:18;5.80;99.90
39601;DHT22;25297;44.758;11.310;2024-01-27T07:00:44;5.80;99.90
39601;DHT22;25297;44.758;11.310;2024-01-27T07:03:10;5.80;99.90
39601;DHT22;25297;44.758;11.310;2024-01-27T07:05:36;5.70;99.90
39601;DHT22;25297;44.758;11.310;2024-01-27T07:08:08;5.70;99.90
39601;DHT22;25297;44.758;11.310;2024-01-27T07:10:35;5.70;99.90
39601;DHT22;25297;44.758;11.310;2024-01-27T07:13:01;5.70;99.90
39601;DHT22;25297;44.758;11.310;2024-01-27T07:15:26;5.80;99.90
39601;DHT22;25297;44.758;11.310;2024-01-27T07:17:53;5.90;99.90
39601;DHT22;25297;44.758;11.310;2024-01-27T07:20:19;5.90;99.90
39601;DHT22;25297;44.758;11.310;2024-01-27T07:22:49;6.00;99.90
39601;DHT22;25297;44.758;11.310;2024-01-27T07:25:15;6.00;99.90
39601;DHT22;25297;44.758;11.310;2024-01-27T07:27:41;6.00;99.90
39601;DHT22;25297;44.758;11.310;2024-01-27T07:30:07;6.00;99.90
39601;DHT22;25297;44.758;11.310;2024-01-27T07:32:34;6.10;99.90
39601;DHT22;25297;44.758;11.310;2024-01-27T07:35:01;6.10;99.90
39601;DHT22;25297;44.758;11.310;2024-01-27T07:37:27;6.10;99.90
39601;DHT22;25297;44.758;11.310;2024-01-27T07:39:52;6.20;99.90
39601;DHT22;25297;44.758;11.310;2024-01-27T07:42:18;6.20;99.70
39601;DHT22;25297;44.758;11.310;2024-01-27T07:44:43;6.20;99.40
39601;DHT22;25297;44.758;11.310;2024-01-27T07:47:09;6.20;99.20
39601;DHT22;25297;44.758;11.310;2024-01-27T07:49:35;6.30;99.20
39601;DHT22;25297;44.758;11.310;2024-01-27T07:52:00;6.30;99.00
39601;DHT22;25297;44.758;11.310;2024-01-27T07:54:26;6.30;99.00
39601;DHT22;25297;44.758;11.310;2024-01-27T07:56:52;6.40;98.60
39601;DHT22;25297;44.758;11.310;2024-01-27T07:59:18;6.40;98.80
39601;DHT22;25297;44.758;11.310;2024-01-27T08:01:44;6.50;98.90
39601;DHT22;25297;44.758;11.310;2024-01-27T08:04:10;6.50;98.80
39601;DHT22;25297;44.758;11.310;2024-01-27T08:06:46;6.50;98.50
39601;DHT22;25297;44.758;11.310;2024-01-27T08:09:12;6.50;99.00
39601;DHT22;25297;44.758;11.310;2024-01-27T08:11:38;6.60;99.30
39601;DHT22;25297;44.758;11.310;2024-01-27T08:14:04;6.60;99.40
39601;DHT22;25297;44.758;11.310;2024-01-27T08:16:29;6.70;99.40
39601;DHT22;25297;44.758;11.310;2024-01-27T08:18:55;6.70;99.70
39601;DHT22;25297;44.758;11.310;2024-01-27T08:21:21;6.90;99.90
39601;DHT22;25297;44.758;11.310;2024-01-27T08:23:46;6.90;99.90
39601;DHT22;25297;44.758;11.310;2024-01-27T08:26:12;7.00;99.90
39601;DHT22;25297;44.758;11.310;2024-01-27T08:28:38;7.10;99.90
39601;DHT22;25297;44.758;11.310;2024-01-27T08:31:04;7.20;99.80
39601;DHT22;25297;44.758;11.310;2024-01-27T08:33:30;7.30;99.70
39601;DHT22;25297;44.758;11.310;2024-01-27T08:35:56;7.40;99.50
39601;DHT22;25297;44.758;11.310;2024-01-27T08:38:21;7.40;99.60
39601;DHT22;25297;44.758;11.310;2024-01-27T08:40:47;7.40;99.60
39601;DHT22;25297;44.758;11.310;2024-01-27T08:43:13;7.40;99.60
39601;DHT22;25297;44.758;11.310;2024-01-27T08:45:38;7.50;99.50
39601;DHT22;25297;44.758;11.310;2024-01-27T08:48:05;7.50;99.70
39601;DHT22;25297;44.758;11.310;2024-01-27T08:50:31;7.50;99.70
39601;DHT22;25297;44.758;11.310;2024-01-27T08:52:57;7.50;99.70
39601;DHT22;25297;44.758;11.310;2024-01-27T08:55:22;7.50;99.50
39601;DHT22;25297;44.758;11.310;2024-01-27T08:57:50;7.50;99.70
39601;DHT22;25297;44.758;11.310;2024-01-27T09:00:15;7.50;99.70
39601;DHT22;25297;44.758;11.310;2024-01-27T09:02:42;7.60;99.70
39601;DHT22;25297;44.758;11.310;2024-01-27T09:05:08;7.60;99.80
39601;DHT22;25297;44.758;11.310;2024-01-27T09:07:34;7.50;99.90
39601;DHT22;25297;44.758;11.310;2024-01-27T09:10:00;7.50;99.90
39601;DHT22;25297;44.758;11.310;2024-01-27T09:12:25;7.50;99.90
39601;DHT22;25297;44.758;11.310;2024-01-27T09:14:51;7.60;99.90
39601;DHT22;25297;44.758;11.310;2024-01-27T09:17:16;7.60;99.90
39601;DHT22;25297;44.758;11.310;2024-01-27T09:19:42;7.60;99.90
39601;DHT22;25297;44.758;11.310;2024-01-27T09:22:08;7.60;99.90
39601;DHT22;25297;44.758;11.310;2024-01-27T09:24:34;7.60;99.90
39601;DHT22;25297;44.758;11.310;2024-01-27T09:26:59;7.70;99.90
39601;DHT22;25297;44.758;11.310;2024-01-27T09:29:25;7.70;99.90
39601;DHT22;25297;44.758;11.310;2024-01-27T09:31:50;7.70;99.90
39601;DHT22;25297;44.758;11.310;2024-01-27T09:34:16;7.70;99.90
39601;DHT22;25297;44.758;11.310;2024-01-27T09:36:42;7.70;99.90
39601;DHT22;25297;44.758;11.310;2024-01-27T09:39:07;7.70;99.90
39601;DHT22;25297;44.758;11.310;2024-01-27T09:41:33;7.80;99.90
39601;DHT22;25297;44.758;11.310;2024-01-27T09:44:03;7.90;99.90
39601;DHT22;25297;44.758;11.310;2024-01-27T09:46:30;7.90;99.90
39601;DHT22;25297;44.758;11.310;2024-01-27T09:48:57;8.00;99.90
39601;DHT22;25297;44.758;11.310;2024-01-27T09:51:25;8.10;99.90
39601;DHT22;25297;44.758;11.310;2024-01-27T09:53:54;8.10;99.90
39601;DHT22;25297;44.758;11.310;2024-01-27T09:56:20;8.20;99.90
39601;DHT22;25297;44.758;11.310;2024-01-27T09:58:47;8.20;99.90
39601;DHT22;25297;44.758;11.310;2024-01-27T10:01:16;8.20;99.90
39601;DHT22;25297;44.758;11.310;2024-01-27T10:03:46;8.30;99.90
39601;DHT22;25297;44.758;11.310;2024-01-27T10:06:12;8.30;99.90
39601;DHT22;25297;44.758;11.310;2024-01-27T10:08:39;8.40;99.90
39601;DHT22;25297;44.758;11.310;2024-01-27T10:11:09;8.50;99.90
39601;DHT22;25297;44.758;11.310;2024-01-27T10:13:36;8.50;99.90
39601;DHT22;25297;44.758;11.310;2024-01-27T10:16:06;8.60;99.90
39601;DHT22;25297;44.758;11.310;2024-01-27T10:18:33;8.60;99.90
39601;DHT22;25297;44.758;11.310;2024-01-27T10:20:58;8.70;99.90
39601;DHT22;25297;44.758;11.310;2024-01-27T10:23:24;8.70;99.90
39601;DHT22;25297;44.758;11.310;2024-01-27T10:25:50;8.80;99.90
39601;DHT22;25297;44.758;11.310;2024-01-27T10:28:18;8.90;99.90
39601;DHT22;25297;44.758;11.310;2024-01-27T10:30:44;8.90;99.90
39601;DHT22;25297;44.758;11.310;2024-01-27T10:33:11;9.00;99.90
39601;DHT22;25297;44.758;11.310;2024-01-27T10:35:39;9.20;99.90
39601;DHT22;25297;44.758;11.310;2024-01-27T10:38:05;9.20;99.90
39601;DHT22;25297;44.758;11.310;2024-01-27T10:40:31;9.30;99.90
39601;DHT22;25297;44.758;11.310;2024-01-27T10:43:02;9.40;99.90
39601;DHT22;25297;44.758;11.310;2024-01-27T10:45:36;9.50;99.90
39601;DHT22;25297;44.758;11.310;2024-01-27T10:48:04;9.50;99.90
39601;DHT22;25297;44.758;11.310;2024-01-27T10:50:35;9.60;99.90
39601;DHT22;25297;44.758;11.310;2024-01-27T10:53:02;9.70;99.90
39601;DHT22;25297;44.758;11.310;2024-01-27T10:55:29;9.80;99.90
39601;DHT22;25297;44.758;11.310;2024-01-27T10:57:55;9.90;99.90
39601;DHT22;25297;44.758;11.310;2024-01-27T11:00:23;9.90;99.90
39601;DHT22;25297;44.758;11.310;2024-01-27T11:02:49;10.00;99.90
39601;DHT22;25297;44.758;11.310;2024-01-27T11:05:19;10.10;99.90
39601;DHT22;25297;44.758;11.310;2024-01-27T11:07:46;10.20;99.90
39601;DHT22;25297;44.758;11.310;2024-01-27T11:10:12;10.30;99.90
39601;DHT22;25297;44.758;11.310;2024-01-27T11:12:38;10.30;99.90
39601;DHT22;25297;44.758;11.310;2024-01-27T11:15:06;10.40;99.90
39601;DHT22;25297;44.758;11.310;2024-01-27T11:17:41;10.40;99.90
39601;DHT22;25297;44.758;11.310;2024-01-27T11:20:08;10.50;99.90
39601;DHT22;25297;44.758;11.310;2024-01-27T11:22:35;10.50;99.90
39601;DHT22;25297;44.758;11.310;2024-01-27T11:25:08;10.60;99.90
39601;DHT22;25297;44.758;11.310;2024-01-27T11:27:34;10.70;99.90
39601;DHT22;25297;44.758;11.310;2024-01-27T11:30:00;10.70;99.90
39601;DHT22;25297;44.758;11.310;2024-01-27T11:32:26;10.80;99.90
39601;DHT22;25297;44.758;11.310;2024-01-27T11:34:52;10.90;99.90
39601;DHT22;25297;44.758;11.310;2024-01-27T11:37:17;10.90;99.90
39601;DHT22;25297;44.758;11.310;2024-01-27T11:39:49;11.00;99.90
39601;DHT22;25297;44.758;11.310;2024-01-27T11:42:16;11.00;99.90
39601;DHT22;25297;44.758;11.310;2024-01-27T11:44:42;11.10;99.90
39601;DHT22;25297;44.758;11.310;2024-01-27T11:47:15;11.10;99.90
39601;DHT22;25297;44.758;11.310;2024-01-27T11:49:42;11.10;99.90
39601;DHT22;25297;44.758;11.310;2024-01-27T11:52:08;11.20;99.90
39601;DHT22;25297;44.758;11.310;2024-01-27T11:54:33;11.20;99.90
39601;DHT22;25297;44.758;11.310;2024-01-27T11:57:00;11.20;99.90
39601;DHT22;25297;44.758;11.310;2024-01-27T11:59:27;11.20;99.90
39601;DHT22;25297;44.758;11.310;2024-01-27T12:01:52;11.10;99.90
39601;DHT22;25297;44.758;11.310;2024-01-27T12:04:18;11.20;99.90
39601;DHT22;25297;44.758;11.310;2024-01-27T12:06:45;11.20;99.90
39601;DHT22;25297;44.758;11.310;2024-01-27T12:09:10;11.20;99.90
39601;DHT22;25297;44.758;11.310;2024-01-27T12:11:40;11.30;99.90
39601;DHT22;25297;44.758;11.310;2024-01-27T12:14:06;11.30;99.90
39601;DHT22;25297;44.758;11.310;2024-01-27T12:16:32;11.20;99.90
39601;DHT22;25297;44.758;11.310;2024-01-27T12:18:58;11.20;99.90
39601;DHT22;25297;44.758;11.310;2024-01-27T12:21:23;11.20;99.90
39601;DHT22;25297;44.758;11.310;2024-01-27T12:23:58;11.10;99.90
39601;DHT22;25297;44.758;11.310;2024-01-27T12:26:31;11.10;99.90
39601;DHT22;25297;44.758;11.310;2024-01-27T12:28:57;11.10;99.90
39601;DHT22;25297;44.758;11.310;2024-01-27T12:31:23;11.00;99.90
39601;DHT22;25297;44.758;11.310;2024-01-27T12:33:54;11.00;99.90
39601;DHT22;25297;44.758;11.310;2024-01-27T12:36:21;10.90;99.90
39601;DHT22;25297;44.758;11.310;2024-01-27T12:38:56;10.90;99.90
39601;DHT22;25297;44.758;11.310;2024-01-27T12:41:24;10.90;99.90
39601;DHT22;25297;44.758;11.310;2024-01-27T12:43:49;10.90;99.90
39601;DHT22;25297;44.758;11.310;2024-01-27T12:46:15;10.80;99.90
39601;DHT22;25297;44.758;11.310;2024-01-27T12:48:42;10.80;99.90
39601;DHT22;25297;44.758;11.310;2024-01-27T12:51:08;10.80;99.90
39601;DHT22;25297;44.758;11.310;2024-01-27T12:53:34;10.80;99.90
39601;DHT22;25297;44.758;11.310;2024-01-27T12:56:00;10.80;99.90
39601;DHT22;25297;44.758;11.310;2024-01-27T12:58:26;10.80;99.90
39601;DHT22;25297;44.758;11.310;2024-01-27T13:00:51;10.80;99.90
39601;DHT22;25297;44.758;11.310;2024-01-27T13:03:17;10.80;99.90
39601;DHT22;25297;44.758;11.310;2024-01-27T13:05:43;10.80;99.90
39601;DHT22;25297;44.758;11.310;2024-01-27T13:08:08;10.80;99.90
39601;DHT22;25297;44.758;11.310;2024-01-27T13:10:35;10.90;99.90
39601;DHT22;25297;44.758;11.310;2024-01-27T13:13:01;10.90;99.90
39601;DHT22;25297;44.758;11.310;2024-01-27T13:15:27;10.80;99.90
39601;DHT22;25297;44.758;11.310;2024-01-27T13:17:52;10.90;99.90
39601;DHT22;25297;44.758;11.310;2024-01-27T13:20:18;10.80;99.90
39601;DHT22;25297;44.758;11.310;2024-01-27T13:22:44;10.80;99.90
39601;DHT22;25297;44.758;11.310;2024-01-27T13:25:10;10.80;99.90
39601;DHT22;25297;44.758;11.310;2024-01-27T13:27:36;10.70;99.90
39601;DHT22;25297;44.758;11.310;2024-01-27T13:30:02;10.70;99.90
39601;DHT22;25297;44.758;11.310;2024-01-27T13:32:28;10.70;99.90
39601;DHT22;25297;44.758;11.310;2024-01-27T13:34:54;10.60;99.90
39601;DHT22;25297;44.758;11.310;2024-01-27T13:37:20;10.60;99.90
39601;DHT22;25297;44.758;11.310;2024-01-27T13:39:47;10.70;99.90
39601;DHT22;25297;44.758;11.310;2024-01-27T13:42:13;10.70;99.90
39601;DHT22;25297;44.758;11.310;2024-01-27T13:44:39;10.70;99.90
39601;DHT22;25297;44.758;11.310;2024-01-27T13:47:05;10.70;99.90
39601;DHT22;25297;44.758;11.310;2024-01-27T13:49:34;10.70;99.90
39601;DHT22;25297;44.758;11.310;2024-01-27T13:52:00;10.70;99.90
39601;DHT22;25297;44.758;11.310;2024-01-27T13:54:25;10.60;99.90
39601;DHT22;25297;44.758;11.310;2024-01-27T13:56:51;10.60;99.90
39601;DHT22;25297;44.758;11.310;2024-01-27T13:59:17;10.60;99.90
39601;DHT22;25297;44.758;11.310;2024-01-27T14:01:42;10.60;99.90
39601;DHT22;25297;44.758;11.310;2024-01-27T14:04:08;10.60;99.90
39601;DHT22;25297;44.758;11.310;2024-01-27T14:06:34;10.60;99.90
39601;DHT22;25297;44.758;11.310;2024-01-27T14:09:00;10.60;99.90
39601;DHT22;25297;44.758;11.310;2024-01-27T14:11:27;10.50;99.90
39601;DHT22;25297;44.758;11.310;2024-01-27T14:13:53;10.50;99.90
39601;DHT22;25297;44.758;11.310;2024-01-27T14:16:19;10.50;99.90
39601;DHT22;25297;44.758;11.310;2024-01-27T14:18:45;10.50;99.90
39601;DHT22;25297;44.758;11.310;2024-01-27T14:21:11;10.40;99.90
39601;DHT22;25297;44.758;11.310;2024-01-27T14:23:37;10.50;99.90
39601;DHT22;25297;44.758;11.310;2024-01-27T14:26:03;10.50;99.90
39601;DHT22;25297;44.758;11.310;2024-01-27T14:28:29;10.50;99.90
39601;DHT22;25297;44.758;11.310;2024-01-27T14:30:55;10.40;99.90
39601;DHT22;25297;44.758;11.310;2024-01-27T14:33:20;10.50;99.90
39601;DHT22;25297;44.758;11.310;2024-01-27T14:35:47;10.50;99.90
39601;DHT22;25297;44.758;11.310;2024-01-27T14:38:13;10.50;99.90
39601;DHT22;25297;44.758;11.310;2024-01-27T14:40:39;10.50;99.90
39601;DHT22;25297;44.758;11.310;2024-01-27T14:43:05;10.50;99.90
39601;DHT22;25297;44.758;11.310;2024-01-27T14:45:35;10.60;99.90
39601;DHT22;25297;44.758;11.310;2024-01-27T14:48:01;10.60;99.90
39601;DHT22;25297;44.758;11.310;2024-01-27T14:50:28;10.60;99.90
39601;DHT22;25297;44.758;11.310;2024-01-27T14:52:53;10.50;99.90
39601;DHT22;25297;44.758;11.310;2024-01-27T14:55:19;10.50;99.90
39601;DHT22;25297;44.758;11.310;2024-01-27T14:57:45;10.50;99.90
39601;DHT22;25297;44.758;11.310;2024-01-27T15:00:11;10.50;99.90
39601;DHT22;25297;44.758;11.310;2024-01-27T15:02:40;10.50;99.90
39601;DHT22;25297;44.758;11.310;2024-01-27T15:05:06;10.40;99.90
39601;DHT22;25297;44.758;11.310;2024-01-27T15:07:34;10.40;99.90
39601;DHT22;25297;44.758;11.310;2024-01-27T15:10:00;10.30;99.90
39601;DHT22;25297;44.758;11.310;2024-01-27T15:12:25;10.30;99.90
39601;DHT22;25297;44.758;11.310;2024-01-27T15:14:51;10.20;99.90
39601;DHT22;25297;44.758;11.310;2024-01-27T15:17:20;10.20;99.90
39601;DHT22;25297;44.758;11.310;2024-01-27T15:19:48;10.20;99.90
39601;DHT22;25297;44.758;11.310;2024-01-27T15:22:14;10.10;99.90